Time;durP1;ratioP1;P1;durP2;ratioP2;P2;SDS_P1;SDS_P2;PMS_P1;PMS_P2;Temp;Humidity;BMP_temperature;BMP_pressure;BME280_temperature;BME280_humidity;BME280_pressure;Samples;Min_cycle;Max_cycle;Signal;HPM_P1;HPM_P2
2024/04/08 00:01:21;;;;;;;;;4.00;2.00;;;;;;;;5091386;27;45394;-48
2024/04/08 00:03:46;;;;;;;;;4.00;2.00;;;;;;;;5083388;27;46343;-48
2024/04/08 00:06:11;;;;;;;;;3.67;2.67;;;;;;;;5083959;27;45885;-51
2024/04/08 00:08:36;;;;;;;;;4.00;2.33;;;;;;;;5099208;27;45239;-48
2024/04/08 00:11:07;;;;;;;;;3.67;2.33;;;;;;;;5097863;27;45228;-52
2024/04/08 00:13:33;;;;;;;;;3.67;3.67;;;;;;;;5088913;27;46299;-52
2024/04/08 00:15:59;;;;;;;;;4.67;3.00;;;;;;;;5090909;27;45340;-47
2024/04/08 00:18:24;;;;;;;;;4.00;3.00;;;;;;;;5077533;27;45588;-49
2024/04/08 00:20:58;;;;;;;;;5.00;3.00;;;;;;;;5082781;27;45658;-49
2024/04/08 00:23:23;;;;;;;;;6.33;2.67;;;;;;;;5075409;28;45532;-48
2024/04/08 00:25:49;;;;;;;;;2.67;2.67;;;;;;;;5094088;27;45210;-52
2024/04/08 00:28:14;;;;;;;;;3.33;3.33;;;;;;;;5084605;27;45635;-50
2024/04/08 00:30:40;;;;;;;;;5.00;3.00;;;;;;;;5083316;27;45224;-49
2024/04/08 00:33:05;;;;;;;;;3.00;3.00;;;;;;;;5096009;27;46662;-52
2024/04/08 00:35:31;;;;;;;;;4.33;4.33;;;;;;;;5082882;27;45399;-50
2024/04/08 00:37:56;;;;;;;;;4.33;4.00;;;;;;;;5100861;27;45312;-51
2024/04/08 00:40:21;;;;;;;;;6.67;5.00;;;;;;;;5100762;27;45330;-51
2024/04/08 00:42:46;;;;;;;;;6.33;5.00;;;;;;;;5095576;27;45403;-52
2024/04/08 00:45:12;;;;;;;;;5.00;4.00;;;;;;;;5093507;27;45309;-51
2024/04/08 00:47:37;;;;;;;;;5.00;4.00;;;;;;;;5100914;27;45572;-51
2024/04/08 00:50:03;;;;;;;;;5.67;4.00;;;;;;;;5097082;27;45290;-49
2024/04/08 00:52:29;;;;;;;;;4.00;4.00;;;;;;;;5096197;27;45336;-52
2024/04/08 00:54:54;;;;;;;;;8.00;4.67;;;;;;;;5091090;27;45473;-49
2024/04/08 00:57:20;;;;;;;;;6.67;6.00;;;;;;;;5097681;27;45374;-49
2024/04/08 00:59:45;;;;;;;;;7.67;6.67;;;;;;;;5072402;28;45393;-50
2024/04/08 01:02:10;;;;;;;;;4.00;4.00;;;;;;;;5096804;27;46306;-52
2024/04/08 01:04:37;;;;;;;;;6.00;5.67;;;;;;;;5100403;27;45406;-51
2024/04/08 01:07:02;;;;;;;;;6.33;6.33;;;;;;;;5087429;27;45494;-51
2024/04/08 01:09:28;;;;;;;;;6.00;5.33;;;;;;;;5092195;27;45892;-50
2024/04/08 01:11:54;;;;;;;;;6.00;6.00;;;;;;;;5092155;27;46193;-53
2024/04/08 01:14:19;;;;;;;;;8.00;6.33;;;;;;;;5083381;27;45852;-50
2024/04/08 01:16:44;;;;;;;;;6.00;5.00;;;;;;;;5096244;27;45505;-52
2024/04/08 01:19:13;;;;;;;;;10.33;9.33;;;;;;;;5081668;27;45418;-52
2024/04/08 01:21:40;;;;;;;;;9.00;6.00;;;;;;;;5085190;27;45445;-52
2024/04/08 01:24:06;;;;;;;;;8.00;8.00;;;;;;;;5090205;27;45495;-51
2024/04/08 01:26:31;;;;;;;;;10.00;9.33;;;;;;;;5088609;27;45507;-52
2024/04/08 01:28:56;;;;;;;;;10.00;9.67;;;;;;;;5090153;27;45387;-50
2024/04/08 01:31:21;;;;;;;;;7.33;7.00;;;;;;;;5095743;27;45526;-52
2024/04/08 01:33:47;;;;;;;;;7.00;7.00;;;;;;;;5082357;27;45294;-51
2024/04/08 01:36:12;;;;;;;;;8.00;8.00;;;;;;;;5086697;27;45443;-51
2024/04/08 01:38:39;;;;;;;;;4.67;2.67;;;;;;;;5090792;27;45457;-52
2024/04/08 01:41:04;;;;;;;;;10.00;8.00;;;;;;;;5092682;27;45597;-50
2024/04/08 01:43:29;;;;;;;;;7.00;7.00;;;;;;;;5090201;27;45272;-50
2024/04/08 01:45:54;;;;;;;;;12.67;9.00;;;;;;;;5086791;27;45555;-50
2024/04/08 01:48:19;;;;;;;;;9.00;9.00;;;;;;;;5099843;27;45280;-50
2024/04/08 01:50:44;;;;;;;;;8.00;8.00;;;;;;;;5083546;27;47281;-52
2024/04/08 01:53:10;;;;;;;;;9.00;7.67;;;;;;;;5099381;27;45322;-49
2024/04/08 01:55:35;;;;;;;;;10.33;9.67;;;;;;;;5096027;27;45335;-52
2024/04/08 01:58:00;;;;;;;;;7.67;7.00;;;;;;;;5090275;27;45219;-50
2024/04/08 02:00:25;;;;;;;;;6.33;6.33;;;;;;;;5097327;27;46360;-49
2024/04/08 02:02:51;;;;;;;;;10.67;7.33;;;;;;;;5100120;27;45319;-49
2024/04/08 02:05:16;;;;;;;;;8.00;8.00;;;;;;;;5089993;27;45722;-51
2024/04/08 02:07:41;;;;;;;;;14.00;10.00;;;;;;;;5090934;27;45412;-51
2024/04/08 02:10:06;;;;;;;;;10.67;9.00;;;;;;;;5093271;27;45789;-48
2024/04/08 02:12:32;;;;;;;;;8.00;7.00;;;;;;;;5094855;27;45256;-51
2024/04/08 02:14:57;;;;;;;;;9.00;9.00;;;;;;;;5085058;27;45316;-52
2024/04/08 02:17:22;;;;;;;;;8.00;8.00;;;;;;;;5088846;27;45436;-50
2024/04/08 02:19:47;;;;;;;;;13.00;8.67;;;;;;;;5095542;27;46070;-52
2024/04/08 02:22:12;;;;;;;;;11.00;9.67;;;;;;;;5095618;27;45504;-52
2024/04/08 02:24:38;;;;;;;;;10.00;10.00;;;;;;;;5077553;27;45415;-50
2024/04/08 02:27:03;;;;;;;;;10.00;7.33;;;;;;;;5091291;27;45643;-49
2024/04/08 02:29:28;;;;;;;;;10.00;8.00;;;;;;;;5093022;27;45609;-52
2024/04/08 02:31:53;;;;;;;;;10.33;8.67;;;;;;;;5091959;27;45606;-50
2024/04/08 02:34:18;;;;;;;;;13.00;12.00;;;;;;;;5094946;27;45243;-49
2024/04/08 02:36:44;;;;;;;;;9.00;9.00;;;;;;;;5070192;28;45517;-49
2024/04/08 02:39:09;;;;;;;;;12.00;8.33;;;;;;;;5083319;27;46651;-50
2024/04/08 02:41:34;;;;;;;;;11.33;9.67;;;;;;;;5093351;27;45465;-49
2024/04/08 02:43:59;;;;;;;;;11.33;10.00;;;;;;;;5088234;27;45286;-50
2024/04/08 02:46:24;;;;;;;;;12.33;11.67;;;;;;;;5092350;27;45352;-51
2024/04/08 02:48:50;;;;;;;;;14.67;13.00;;;;;;;;5090895;27;46731;-52
2024/04/08 02:51:15;;;;;;;;;16.00;13.00;;;;;;;;5086323;27;45334;-51
2024/04/08 02:53:40;;;;;;;;;17.00;14.33;;;;;;;;5086498;27;45532;-51
2024/04/08 02:56:06;;;;;;;;;11.67;11.33;;;;;;;;5097767;27;45675;-50
2024/04/08 02:58:31;;;;;;;;;13.33;11.00;;;;;;;;5086202;27;46235;-51
2024/04/08 03:00:56;;;;;;;;;13.00;10.67;;;;;;;;5079873;27;45407;-49
2024/04/08 03:03:22;;;;;;;;;10.67;10.00;;;;;;;;5074630;27;45692;-52
2024/04/08 03:05:47;;;;;;;;;12.33;11.00;;;;;;;;5080048;27;45742;-51
2024/04/08 03:08:12;;;;;;;;;12.33;9.33;;;;;;;;5067298;27;45892;-51
2024/04/08 03:10:37;;;;;;;;;14.33;11.00;;;;;;;;5095040;27;45379;-49
2024/04/08 03:13:03;;;;;;;;;13.67;13.00;;;;;;;;5086141;27;45359;-49
2024/04/08 03:15:28;;;;;;;;;14.00;11.67;;;;;;;;5079783;27;45391;-52
2024/04/08 03:17:53;;;;;;;;;15.67;13.00;;;;;;;;5080433;27;45610;-51
2024/04/08 03:20:18;;;;;;;;;14.00;11.00;;;;;;;;5073793;27;45758;-48
2024/04/08 03:22:43;;;;;;;;;13.33;11.00;;;;;;;;5072750;27;45652;-50
2024/04/08 03:25:09;;;;;;;;;12.33;10.00;;;;;;;;5093984;27;45402;-50
2024/04/08 03:27:34;;;;;;;;;15.67;13.67;;;;;;;;5086918;27;46388;-49
2024/04/08 03:29:59;;;;;;;;;14.67;13.67;;;;;;;;5087604;27;45265;-51
2024/04/08 03:32:24;;;;;;;;;12.67;12.33;;;;;;;;5086766;27;45323;-50
2024/04/08 03:34:49;;;;;;;;;17.00;13.33;;;;;;;;5084274;27;45318;-52
2024/04/08 03:37:15;;;;;;;;;8.33;7.33;;;;;;;;5084154;27;46375;-52
2024/04/08 03:39:40;;;;;;;;;13.67;11.67;;;;;;;;5101896;27;45273;-52
2024/04/08 03:42:05;;;;;;;;;14.67;14.67;;;;;;;;5097584;27;45216;-48
2024/04/08 03:44:30;;;;;;;;;16.00;13.67;;;;;;;;5068347;28;45439;-52
2024/04/08 03:46:56;;;;;;;;;12.00;11.33;;;;;;;;5095552;27;45290;-48
2024/04/08 03:49:21;;;;;;;;;15.33;13.67;;;;;;;;5072761;27;45670;-50
2024/04/08 03:51:46;;;;;;;;;11.67;11.00;;;;;;;;5094089;27;45384;-49
2024/04/08 03:54:11;;;;;;;;;13.00;13.00;;;;;;;;5089231;27;45658;-52
2024/04/08 03:56:36;;;;;;;;;12.67;10.67;;;;;;;;5096912;27;45409;-51
2024/04/08 03:59:02;;;;;;;;;11.33;10.00;;;;;;;;5098775;27;45270;-49
2024/04/08 04:01:27;;;;;;;;;12.33;11.33;;;;;;;;5095807;27;45436;-51
2024/04/08 04:03:52;;;;;;;;;13.00;13.00;;;;;;;;5096079;27;45305;-49
2024/04/08 04:06:17;;;;;;;;;12.33;11.67;;;;;;;;5084907;27;46271;-49
2024/04/08 04:08:43;;;;;;;;;13.33;13.33;;;;;;;;5087669;27;45293;-50
2024/04/08 04:11:08;;;;;;;;;16.33;13.67;;;;;;;;5083160;27;45437;-49
2024/04/08 04:13:33;;;;;;;;;13.67;13.67;;;;;;;;5083948;27;45326;-51
2024/04/08 04:16:00;;;;;;;;;15.00;11.00;;;;;;;;5093377;27;46336;-51
2024/04/08 04:18:25;;;;;;;;;11.00;11.00;;;;;;;;5098751;27;45451;-48
2024/04/08 04:20:50;;;;;;;;;10.00;9.00;;;;;;;;5083431;27;45292;-49
2024/04/08 04:23:16;;;;;;;;;11.00;11.00;;;;;;;;5077813;27;45556;-49
2024/04/08 04:25:41;;;;;;;;;10.00;9.67;;;;;;;;5082940;27;46011;-53
2024/04/08 04:28:06;;;;;;;;;12.00;11.00;;;;;;;;5076651;27;45443;-49
2024/04/08 04:30:32;;;;;;;;;10.00;7.33;;;;;;;;5064804;28;45288;-52
2024/04/08 04:32:57;;;;;;;;;14.00;11.00;;;;;;;;5088056;27;45314;-49
2024/04/08 04:35:23;;;;;;;;;10.00;9.00;;;;;;;;5100650;27;45556;-51
2024/04/08 04:37:49;;;;;;;;;10.67;9.33;;;;;;;;5099373;27;45921;-50
2024/04/08 04:40:14;;;;;;;;;11.33;9.67;;;;;;;;5078251;27;45468;-48
2024/04/08 04:42:42;;;;;;;;;11.00;11.00;;;;;;;;5099103;27;45646;-51
2024/04/08 04:45:08;;;;;;;;;8.67;8.67;;;;;;;;5071460;27;47496;-49
2024/04/08 04:47:33;;;;;;;;;8.00;8.00;;;;;;;;5086987;27;45572;-51
2024/04/08 04:49:59;;;;;;;;;9.00;7.00;;;;;;;;5084309;27;45394;-50
2024/04/08 04:52:24;;;;;;;;;8.00;8.00;;;;;;;;5088276;27;45276;-51
2024/04/08 04:54:49;;;;;;;;;9.33;9.33;;;;;;;;5092584;27;45585;-50
2024/04/08 04:57:14;;;;;;;;;8.33;7.00;;;;;;;;5099450;27;45344;-51
2024/04/08 04:59:39;;;;;;;;;11.00;9.00;;;;;;;;5100707;27;45288;-48
2024/04/08 05:02:04;;;;;;;;;12.00;8.00;;;;;;;;5100159;27;45425;-49
2024/04/08 05:04:29;;;;;;;;;9.67;9.67;;;;;;;;5098025;27;46629;-51
2024/04/08 05:06:55;;;;;;;;;9.67;9.00;;;;;;;;5096889;27;45452;-51
2024/04/08 05:09:20;;;;;;;;;8.67;8.00;;;;;;;;5097284;27;45469;-51
2024/04/08 05:11:46;;;;;;;;;9.67;9.67;;;;;;;;5094377;27;45405;-51
2024/04/08 05:14:11;;;;;;;;;10.00;8.00;;;;;;;;5083346;27;45473;-51
2024/04/08 05:16:36;;;;;;;;;10.33;9.00;;;;;;;;5066181;27;45288;-52
2024/04/08 05:19:01;;;;;;;;;8.67;8.67;;;;;;;;5101182;27;45425;-51
2024/04/08 05:21:26;;;;;;;;;8.33;8.33;;;;;;;;5085830;27;45266;-51
2024/04/08 05:23:51;;;;;;;;;10.00;6.00;;;;;;;;5087420;27;45620;-49
2024/04/08 05:26:17;;;;;;;;;11.67;9.00;;;;;;;;5090672;27;45457;-51
2024/04/08 05:28:42;;;;;;;;;10.00;10.00;;;;;;;;5095022;27;45521;-52
2024/04/08 05:31:07;;;;;;;;;8.33;8.33;;;;;;;;5065212;27;45342;-51
2024/04/08 05:33:33;;;;;;;;;11.67;7.67;;;;;;;;5087214;27;45520;-48
2024/04/08 05:35:58;;;;;;;;;8.67;8.67;;;;;;;;5069225;27;45619;-48
2024/04/08 05:38:24;;;;;;;;;9.00;7.67;;;;;;;;5091467;27;45275;-50
2024/04/08 05:40:50;;;;;;;;;8.67;7.00;;;;;;;;5096141;27;45465;-48
2024/04/08 05:43:15;;;;;;;;;10.67;8.00;;;;;;;;5090854;27;46022;-52
2024/04/08 05:45:40;;;;;;;;;9.67;9.67;;;;;;;;5083717;27;45341;-50
2024/04/08 05:48:06;;;;;;;;;12.00;10.00;;;;;;;;5093872;27;45414;-49
2024/04/08 05:50:31;;;;;;;;;10.00;7.33;;;;;;;;5094343;27;45440;-50
2024/04/08 05:52:56;;;;;;;;;9.00;8.67;;;;;;;;5088775;27;45430;-51
2024/04/08 05:55:21;;;;;;;;;10.00;10.00;;;;;;;;5083953;27;45583;-49
2024/04/08 05:57:46;;;;;;;;;13.00;10.00;;;;;;;;5072590;28;45518;-49
2024/04/08 06:00:12;;;;;;;;;14.67;13.00;;;;;;;;5073843;27;45644;-48
2024/04/08 06:02:38;;;;;;;;;15.33;14.00;;;;;;;;5084925;27;46072;-49
2024/04/08 06:05:03;;;;;;;;;12.33;12.33;;;;;;;;5099345;27;45164;-50
2024/04/08 06:07:28;;;;;;;;;14.67;14.67;;;;;;;;5082403;27;45521;-50
2024/04/08 06:09:53;;;;;;;;;11.00;10.33;;;;;;;;5099350;27;45600;-48
2024/04/08 06:12:19;;;;;;;;;14.00;13.00;;;;;;;;5087585;27;45335;-52
2024/04/08 06:14:45;;;;;;;;;12.00;9.00;;;;;;;;5093969;27;45295;-49
2024/04/08 06:17:10;;;;;;;;;16.67;16.00;;;;;;;;5062774;28;45326;-52
2024/04/08 06:19:35;;;;;;;;;17.00;14.33;;;;;;;;5087100;27;45440;-49
2024/04/08 06:22:00;;;;;;;;;17.33;17.33;;;;;;;;5089561;27;45658;-49
2024/04/08 06:24:27;;;;;;;;;15.67;14.00;;;;;;;;5099081;27;45663;-49
2024/04/08 06:26:52;;;;;;;;;16.00;15.00;;;;;;;;5095947;27;45333;-50
2024/04/08 06:29:17;;;;;;;;;16.33;14.67;;;;;;;;5087488;27;45345;-51
2024/04/08 06:31:42;;;;;;;;;16.67;15.00;;;;;;;;5082410;27;45303;-50
2024/04/08 06:34:08;;;;;;;;;14.33;13.00;;;;;;;;5094027;27;45255;-52
2024/04/08 06:36:33;;;;;;;;;13.00;13.00;;;;;;;;5089096;27;45417;-52
2024/04/08 06:38:58;;;;;;;;;14.33;10.33;;;;;;;;5097757;27;45388;-51
2024/04/08 06:41:23;;;;;;;;;15.33;10.33;;;;;;;;5097994;27;46692;-52
2024/04/08 06:43:48;;;;;;;;;13.33;10.67;;;;;;;;5089382;27;45686;-50
2024/04/08 06:46:14;;;;;;;;;11.67;10.00;;;;;;;;5092975;27;45248;-50
2024/04/08 06:48:39;;;;;;;;;7.33;7.33;;;;;;;;5099575;27;45424;-51
2024/04/08 06:51:04;;;;;;;;;10.00;7.67;;;;;;;;5094265;27;45582;-55
2024/04/08 06:53:29;;;;;;;;;13.67;9.33;;;;;;;;5087102;27;45249;-55
2024/04/08 06:55:55;;;;;;;;;12.33;10.67;;;;;;;;5097346;27;45263;-56
2024/04/08 06:58:20;;;;;;;;;10.00;9.00;;;;;;;;5086837;27;45448;-56
2024/04/08 07:00:46;;;;;;;;;13.00;11.00;;;;;;;;5098095;27;46136;-55
2024/04/08 07:03:11;;;;;;;;;12.33;10.67;;;;;;;;5098900;27;45690;-55
2024/04/08 07:05:36;;;;;;;;;0.67;0.67;;;;;;;;5099114;27;45615;-56
2024/04/08 07:08:02;;;;;;;;;9.67;9.67;;;;;;;;5098704;27;45486;-55
2024/04/08 07:10:27;;;;;;;;;11.33;8.00;;;;;;;;5086503;27;46115;-55
2024/04/08 07:12:52;;;;;;;;;13.33;8.00;;;;;;;;5102582;27;45604;-56
2024/04/08 07:15:20;;;;;;;;;9.33;8.00;;;;;;;;5097381;27;45445;-55
2024/04/08 07:17:45;;;;;;;;;6.67;6.67;;;;;;;;5083362;27;45534;-56
2024/04/08 07:20:11;;;;;;;;;7.33;7.33;;;;;;;;5101140;27;45453;-55
2024/04/08 07:22:36;;;;;;;;;7.00;6.50;;;;;;;;5084002;27;45264;-56
2024/04/08 07:25:01;;;;;;;;;8.00;8.00;;;;;;;;5085524;27;45284;-55
2024/04/08 07:27:26;;;;;;;;;6.50;5.00;;;;;;;;5094872;27;45391;-55
2024/04/08 07:29:52;;;;;;;;;6.00;6.00;;;;;;;;5090080;27;45370;-53
2024/04/08 07:32:17;;;;;;;;;6.67;6.00;;;;;;;;5090776;27;45388;-55
2024/04/08 07:34:42;;;;;;;;;7.00;5.67;;;;;;;;5101335;27;45400;-55
2024/04/08 07:37:07;;;;;;;;;8.00;6.67;;;;;;;;5091028;27;45481;-55
2024/04/08 07:39:32;;;;;;;;;9.00;7.33;;;;;;;;5096938;27;45355;-54
2024/04/08 07:41:57;;;;;;;;;9.00;6.33;;;;;;;;5094303;27;45421;-55
2024/04/08 07:44:24;;;;;;;;;6.25;5.25;;;;;;;;5089895;27;45288;-55
2024/04/08 07:46:49;;;;;;;;;5.67;5.67;;;;;;;;5091677;27;45524;-55
2024/04/08 07:49:14;;;;;;;;;7.00;4.67;;;;;;;;5088965;27;46006;-55
2024/04/08 07:51:39;;;;;;;;;3.75;3.75;;;;;;;;5093733;27;45496;-54
2024/04/08 07:54:05;;;;;;;;;4.67;4.33;;;;;;;;5090364;27;45549;-55
2024/04/08 07:56:30;;;;;;;;;4.67;3.67;;;;;;;;5101861;27;45437;-56
2024/04/08 07:58:55;;;;;;;;;6.67;4.67;;;;;;;;5085336;27;45394;-56
2024/04/08 08:01:20;;;;;;;;;2.25;2.25;;;;;;;;5094919;27;45504;-55
2024/04/08 08:03:45;;;;;;;;;7.00;7.00;;;;;;;;5098625;27;45133;-55
2024/04/08 08:06:10;;;;;;;;;7.00;5.00;;;;;;;;5091609;27;45188;-54
2024/04/08 08:08:36;;;;;;;;;5.00;5.00;;;;;;;;5088782;27;45602;-56
2024/04/08 08:11:03;;;;;;;;;4.00;4.00;;;;;;;;5100197;27;45325;-56
2024/04/08 08:13:32;;;;;;;;;6.67;4.33;;;;;;;;5089687;27;45232;-55
2024/04/08 08:15:58;;;;;;;;;6.67;5.00;;;;;;;;5101690;27;45470;-56
2024/04/08 08:18:24;;;;;;;;;6.67;5.67;;;;;;;;5067533;27;47336;-56
2024/04/08 08:20:49;;;;;;;;;9.33;6.67;;;;;;;;5091509;27;45353;-55
2024/04/08 08:23:15;;;;;;;;;5.00;4.33;;;;;;;;5096049;27;45402;-55
2024/04/08 08:25:40;;;;;;;;;6.33;5.00;;;;;;;;5082498;27;45363;-56
2024/04/08 08:28:06;;;;;;;;;6.67;5.00;;;;;;;;5098328;27;45422;-55
2024/04/08 08:30:34;;;;;;;;;6.00;4.33;;;;;;;;5101224;27;45361;-56
2024/04/08 08:32:59;;;;;;;;;5.00;4.67;;;;;;;;5101208;27;45296;-55
2024/04/08 08:35:25;;;;;;;;;7.67;5.00;;;;;;;;5091355;27;45481;-56
2024/04/08 08:37:50;;;;;;;;;5.00;4.00;;;;;;;;5084627;27;45343;-55
2024/04/08 08:40:15;;;;;;;;;10.00;6.00;;;;;;;;5091708;27;45313;-55
2024/04/08 08:42:40;;;;;;;;;7.00;4.67;;;;;;;;5101169;27;45359;-56
2024/04/08 08:45:08;;;;;;;;;3.00;3.00;;;;;;;;5091654;27;45398;-55
2024/04/08 08:47:33;;;;;;;;;2.67;2.67;;;;;;;;5099268;27;45429;-55
2024/04/08 08:50:02;;;;;;;;;5.67;3.00;;;;;;;;5087741;27;45396;-55
2024/04/08 08:52:28;;;;;;;;;5.00;4.00;;;;;;;;5072969;27;45441;-55
2024/04/08 08:54:53;;;;;;;;;3.33;2.00;;;;;;;;5092744;27;45382;-56
2024/04/08 08:57:19;;;;;;;;;2.67;2.67;;;;;;;;5098139;27;46627;-55
2024/04/08 08:59:45;;;;;;;;;6.00;4.00;;;;;;;;5100803;27;45445;-55
2024/04/08 09:02:12;;;;;;;;;2.67;2.67;;;;;;;;5087364;27;45406;-55
2024/04/08 09:04:37;;;;;;;;;3.67;3.00;;;;;;;;5090968;27;45344;-56
2024/04/08 09:07:02;;;;;;;;;1.67;1.67;;;;;;;;5084963;27;46531;-56
2024/04/08 09:09:28;;;;;;;;;0.00;0.00;;;;;;;;5090524;27;45338;-55
2024/04/08 09:11:53;;;;;;;;;3.00;3.00;;;;;;;;5095253;27;45488;-54
2024/04/08 09:14:18;;;;;;;;;2.67;1.00;;;;;;;;5089917;27;45307;-55
2024/04/08 09:16:43;;;;;;;;;2.00;2.00;;;;;;;;5096133;27;45326;-56
2024/04/08 09:19:09;;;;;;;;;2.67;2.67;;;;;;;;5081084;27;45754;-55
2024/04/08 09:21:34;;;;;;;;;5.00;1.67;;;;;;;;5097765;27;45955;-55
2024/04/08 09:24:02;;;;;;;;;1.67;1.67;;;;;;;;5090899;27;45462;-56
2024/04/08 09:26:27;;;;;;;;;5.00;2.00;;;;;;;;5085759;27;46043;-54
2024/04/08 09:28:53;;;;;;;;;2.00;2.00;;;;;;;;5100259;27;45373;-55
2024/04/08 09:31:20;;;;;;;;;6.00;3.00;;;;;;;;5096661;27;45586;-56
2024/04/08 09:33:45;;;;;;;;;4.00;2.67;;;;;;;;5091616;27;45412;-55
2024/04/08 09:36:10;;;;;;;;;3.33;1.67;;;;;;;;5087691;27;45614;-56
2024/04/08 09:38:37;;;;;;;;;3.33;3.00;;;;;;;;5090667;27;45293;-55
2024/04/08 09:41:02;;;;;;;;;3.00;3.00;;;;;;;;5085431;27;45361;-55
2024/04/08 09:43:28;;;;;;;;;5.67;4.00;;;;;;;;5071965;28;45652;-55
2024/04/08 09:45:55;;;;;;;;;3.00;3.00;;;;;;;;5097635;27;46377;-55
2024/04/08 09:48:20;;;;;;;;;5.67;5.00;;;;;;;;5099840;27;45353;-56
2024/04/08 09:50:47;;;;;;;;;7.00;4.33;;;;;;;;5088023;27;45297;-55
2024/04/08 09:53:12;;;;;;;;;6.33;4.00;;;;;;;;5086675;27;45403;-55
2024/04/08 09:55:39;;;;;;;;;6.67;5.00;;;;;;;;5097035;27;45542;-55
2024/04/08 09:58:07;;;;;;;;;7.33;5.67;;;;;;;;5099380;27;45405;-57
2024/04/08 10:00:34;;;;;;;;;7.00;5.00;;;;;;;;5096790;27;45317;-56
2024/04/08 10:03:03;;;;;;;;;7.67;5.67;;;;;;;;5090961;27;45501;-55
2024/04/08 10:05:29;;;;;;;;;9.33;7.33;;;;;;;;5085061;27;45365;-55
2024/04/08 10:07:54;;;;;;;;;6.00;5.00;;;;;;;;5099764;27;45358;-59
2024/04/08 10:10:19;;;;;;;;;6.00;4.00;;;;;;;;5095952;27;45318;-55
2024/04/08 10:12:45;;;;;;;;;6.67;5.33;;;;;;;;5098091;27;45688;-55
2024/04/08 10:15:13;;;;;;;;;5.33;5.33;;;;;;;;5095720;27;46268;-55
2024/04/08 10:17:42;;;;;;;;;4.50;4.50;;;;;;;;5099843;27;45333;-55
2024/04/08 10:20:07;;;;;;;;;8.00;6.50;;;;;;;;5097502;27;45391;-56
2024/04/08 10:22:34;;;;;;;;;6.50;6.00;;;;;;;;5098068;27;45285;-55
2024/04/08 10:24:59;;;;;;;;;5.75;5.75;;;;;;;;5096244;27;46297;-56
2024/04/08 10:27:25;;;;;;;;;6.75;6.75;;;;;;;;5099146;27;45267;-56
2024/04/08 10:29:57;;;;;;;;;5.75;5.75;;;;;;;;5097273;27;45407;-56
2024/04/08 10:32:22;;;;;;;;;5.50;4.50;;;;;;;;5098139;27;45463;-56
2024/04/08 10:34:47;;;;;;;;;5.00;5.00;;;;;;;;5098653;27;46759;-56
